Time;durP1;ratioP1;P1;durP2;ratioP2;P2;SDS_P1;SDS_P2;PMS_P1;PMS_P2;Temp;Humidity;BMP_temperature;BMP_pressure;BME280_temperature;BME280_humidity;BME280_pressure;Samples;Min_cycle;Max_cycle;Signal;HPM_P1;HPM_P2
2024/04/25 00:01:24;;;;;;;14.10;9.32;;;10.60;83.80;;;;;;5451383;26;20009;-72
2024/04/25 00:03:50;;;;;;;14.32;9.30;;;10.60;84.40;;;;;;5451639;26;20002;-72
2024/04/25 00:06:16;;;;;;;11.73;8.40;;;10.50;84.80;;;;;;5451389;26;20071;-73
2024/04/25 00:08:41;;;;;;;14.48;9.02;;;10.40;84.70;;;;;;5451078;26;19999;-71
2024/04/25 00:11:07;;;;;;;13.30;8.90;;;10.40;84.50;;;;;;5451877;26;19994;-73
2024/04/25 00:13:33;;;;;;;14.73;9.30;;;10.40;84.60;;;;;;5450953;26;20470;-74
2024/04/25 00:15:59;;;;;;;13.40;8.80;;;10.40;84.70;;;;;;5451024;26;20009;-73
2024/04/25 00:18:25;;;;;;;11.77;8.60;;;10.40;84.90;;;;;;5450666;26;20003;-73
2024/04/25 00:20:51;;;;;;;14.65;8.40;;;10.40;84.40;;;;;;5451066;26;20009;-72
2024/04/25 00:23:16;;;;;;;13.80;8.60;;;10.40;84.60;;;;;;5451003;26;20343;-73
2024/04/25 00:25:42;;;;;;;13.30;8.35;;;10.40;84.60;;;;;;5450888;26;20001;-73
2024/04/25 00:28:07;;;;;;;13.10;8.38;;;10.40;84.60;;;;;;5418613;26;20010;-72
2024/04/25 00:30:33;;;;;;;13.63;8.68;;;10.50;84.50;;;;;;5451010;26;19999;-73
2024/04/25 00:32:59;;;;;;;13.80;8.43;;;10.40;84.20;;;;;;5450414;26;20400;-72
2024/04/25 00:35:25;;;;;;;13.85;8.32;;;10.40;84.50;;;;;;5450342;26;19999;-71
2024/04/25 00:37:51;;;;;;;12.27;8.10;;;10.30;84.30;;;;;;5450436;26;20443;-72
2024/04/25 00:40:16;;;;;;;12.20;8.27;;;10.20;84.40;;;;;;5450032;26;20068;-71
2024/04/25 00:42:42;;;;;;;13.07;7.70;;;10.10;84.60;;;;;;5452613;26;19995;-73
2024/04/25 00:45:08;;;;;;;11.77;7.60;;;10.10;85.00;;;;;;5453580;26;19998;-72
2024/04/25 00:47:35;;;;;;;10.00;6.78;;;10.00;84.90;;;;;;5453639;26;19999;-73
2024/04/25 00:50:01;;;;;;;10.85;7.10;;;10.00;85.10;;;;;;5453830;26;20005;-73
2024/04/25 00:52:27;;;;;;;10.10;6.75;;;10.10;84.80;;;;;;5454018;26;20003;-72
2024/04/25 00:54:52;;;;;;;9.68;6.82;;;10.10;84.50;;;;;;5454308;26;20063;-72
2024/04/25 00:57:19;;;;;;;9.60;6.80;;;10.10;84.30;;;;;;5454124;26;19995;-71
2024/04/25 00:59:47;;;;;;;10.52;7.20;;;10.10;84.50;;;;;;5422407;26;20454;-72
2024/04/25 01:02:15;;;;;;;11.25;6.68;;;10.10;84.50;;;;;;5453989;26;19999;-71
2024/04/25 01:04:42;;;;;;;12.52;7.32;;;10.10;84.40;;;;;;5453993;26;20443;-72
2024/04/25 01:07:09;;;;;;;12.27;7.38;;;10.10;84.20;;;;;;5422115;26;20463;-72
2024/04/25 01:09:35;;;;;;;11.85;7.43;;;10.10;84.30;;;;;;5453746;26;20003;-71
2024/04/25 01:12:01;;;;;;;10.98;7.13;;;10.10;84.00;;;;;;5453851;26;20445;-72
2024/04/25 01:14:27;;;;;;;9.98;7.28;;;10.00;83.90;;;;;;5453897;26;20065;-72
2024/04/25 01:16:53;;;;;;;15.15;7.55;;;10.00;84.00;;;;;;5453525;26;20022;-71
2024/04/25 01:19:19;;;;;;;10.98;7.25;;;9.90;84.90;;;;;;5453848;26;19994;-72
2024/04/25 01:21:45;;;;;;;11.95;6.78;;;9.90;85.30;;;;;;5453510;26;19999;-72
2024/04/25 01:24:15;;;;;;;11.65;7.28;;;9.80;85.40;;;;;;5453287;26;20009;-72
2024/04/25 01:26:42;;;;;;;14.85;7.10;;;9.80;85.20;;;;;;5453516;26;20023;-72
2024/04/25 01:29:13;;;;;;;8.93;6.55;;;9.90;85.40;;;;;;5453312;26;20052;-72
2024/04/25 01:31:43;;;;;;;12.85;6.32;;;9.90;85.10;;;;;;5453385;26;20515;-71
2024/04/25 01:34:10;;;;;;;8.88;6.20;;;9.90;85.70;;;;;;5453415;26;19995;-72
2024/04/25 01:36:37;;;;;;;9.77;6.63;;;9.90;85.30;;;;;;5453368;26;20010;-71
2024/04/25 01:39:06;;;;;;;11.38;6.28;;;10.00;84.10;;;;;;5454387;26;19995;-72
2024/04/25 01:41:32;;;;;;;7.93;5.70;;;10.00;83.60;;;;;;5422275;26;20102;-72
2024/04/25 01:43:57;;;;;;;9.35;5.68;;;10.10;83.70;;;;;;5453279;26;20005;-71
2024/04/25 01:46:23;;;;;;;9.57;6.20;;;10.10;83.60;;;;;;5453977;26;20311;-73
2024/04/25 01:48:49;;;;;;;10.43;6.03;;;10.10;83.20;;;;;;5453764;26;19994;-72
2024/04/25 01:51:15;;;;;;;10.25;5.82;;;10.00;83.00;;;;;;5453421;26;20003;-72
2024/04/25 01:53:41;;;;;;;9.32;5.70;;;10.00;82.90;;;;;;5452516;26;19999;-72
2024/04/25 01:56:06;;;;;;;8.75;5.82;;;10.00;83.10;;;;;;5453211;26;19995;-72
2024/04/25 01:58:32;;;;;;;8.30;5.53;;;9.90;84.20;;;;;;5452960;26;20075;-72
2024/04/25 02:00:58;;;;;;;9.25;6.00;;;9.90;84.00;;;;;;5453346;26;19999;-73
2024/04/25 02:03:23;;;;;;;8.02;5.63;;;9.90;83.90;;;;;;5453802;26;20013;-72
2024/04/25 02:05:49;;;;;;;11.98;6.28;;;9.90;83.90;;;;;;5453251;26;19998;-73
2024/04/25 02:08:14;;;;;;;8.07;5.50;;;9.90;83.90;;;;;;5452864;26;20031;-72
2024/04/25 02:10:40;;;;;;;11.90;6.43;;;9.90;84.20;;;;;;5452883;26;20003;-73
2024/04/25 02:13:06;;;;;;;8.30;5.75;;;9.80;83.90;;;;;;5452725;26;19998;-74
2024/04/25 02:15:31;;;;;;;8.35;5.63;;;9.80;84.20;;;;;;5452711;26;20005;-73
2024/04/25 02:17:57;;;;;;;9.27;5.95;;;9.80;84.50;;;;;;5452802;26;19995;-72
2024/04/25 02:25:51;;;;;;;10.00;5.90;;;9.70;85.10;;;;;;5452707;26;20006;-72
2024/04/25 02:28:17;;;;;;;10.32;5.70;;;9.80;84.50;;;;;;5452471;26;19995;-71
2024/04/25 02:30:42;;;;;;;10.68;5.50;;;9.80;84.40;;;;;;5452733;26;19995;-72
2024/04/25 02:33:08;;;;;;;9.45;5.38;;;9.80;84.10;;;;;;5452454;26;19999;-72
2024/04/25 02:35:34;;;;;;;9.80;5.25;;;9.80;84.30;;;;;;5452286;26;19995;-72
2024/04/25 02:37:59;;;;;;;7.88;5.20;;;9.70;84.00;;;;;;5452487;26;20005;-72
2024/04/25 02:40:25;;;;;;;7.47;4.75;;;9.70;84.40;;;;;;5452285;26;19999;-72
2024/04/25 02:42:50;;;;;;;8.95;5.22;;;9.70;84.10;;;;;;5452655;26;20003;-73
2024/04/25 02:45:16;;;;;;;8.93;4.97;;;9.70;84.50;;;;;;5452432;26;19999;-71
2024/04/25 02:47:42;;;;;;;10.45;5.40;;;9.70;84.50;;;;;;5420214;26;20060;-72
2024/04/25 02:50:10;;;;;;;8.23;5.30;;;9.80;84.10;;;;;;5452681;26;20118;-71
2024/04/25 02:52:36;;;;;;;7.22;4.88;;;9.80;84.10;;;;;;5451959;26;20434;-73
2024/04/25 02:55:02;;;;;;;7.28;4.38;;;9.80;83.80;;;;;;5452204;26;20073;-71
2024/04/25 02:57:28;;;;;;;7.38;3.97;;;9.80;84.30;;;;;;5452513;26;20007;-72
2024/04/25 02:59:54;;;;;;;7.15;4.00;;;9.80;84.10;;;;;;5420666;26;19998;-71
2024/04/25 03:02:19;;;;;;;6.18;3.63;;;9.80;83.90;;;;;;5451999;26;19999;-72
2024/04/25 03:04:45;;;;;;;6.38;3.63;;;9.70;83.90;;;;;;5451387;26;19999;-72
2024/04/25 03:07:11;;;;;;;6.15;3.50;;;9.70;83.80;;;;;;5451921;26;20068;-72
2024/04/25 03:09:36;;;;;;;5.53;3.40;;;9.70;84.10;;;;;;5451582;26;20041;-72
2024/04/25 03:12:02;;;;;;;5.38;2.80;;;9.70;84.10;;;;;;5451844;26;20007;-72
2024/04/25 03:14:28;;;;;;;5.60;3.03;;;9.70;84.00;;;;;;5451576;26;20006;-73
2024/04/25 03:16:54;;;;;;;5.57;2.90;;;9.70;83.90;;;;;;5451772;26;20098;-70
2024/04/25 03:19:20;;;;;;;5.55;2.97;;;9.80;84.00;;;;;;5451963;26;19999;-72
2024/04/25 03:21:46;;;;;;;5.88;3.00;;;9.80;83.70;;;;;;5451693;26;19999;-71
2024/04/25 03:24:11;;;;;;;8.73;3.40;;;9.90;83.70;;;;;;5451312;26;19994;-73
2024/04/25 03:26:37;;;;;;;9.35;2.92;;;9.80;83.50;;;;;;5419839;26;19998;-70
2024/04/25 03:29:02;;;;;;;7.22;3.28;;;9.80;83.70;;;;;;5452082;26;20096;-72
2024/04/25 03:31:28;;;;;;;6.03;2.80;;;9.80;84.10;;;;;;5452734;26;20458;-73
2024/04/25 03:33:54;;;;;;;8.52;3.40;;;9.80;83.70;;;;;;5451780;26;20013;-72
2024/04/25 03:36:19;;;;;;;6.22;3.35;;;9.80;83.50;;;;;;5451529;26;20011;-73
2024/04/25 03:38:45;;;;;;;6.40;3.30;;;9.80;83.40;;;;;;5451764;26;20095;-72
2024/04/25 03:41:17;;;;;;;5.72;3.15;;;9.80;83.30;;;;;;5452033;26;20007;-72
2024/04/25 03:43:43;;;;;;;6.72;3.25;;;9.80;83.60;;;;;;5451681;26;20006;-71
2024/04/25 03:46:09;;;;;;;7.57;3.10;;;9.70;83.80;;;;;;5451815;26;20067;-71
2024/04/25 03:48:35;;;;;;;6.00;3.50;;;9.70;83.60;;;;;;5451626;26;19995;-72
2024/04/25 03:51:01;;;;;;;5.43;3.08;;;9.70;83.60;;;;;;5451574;26;19995;-72
2024/04/25 03:53:27;;;;;;;5.65;2.83;;;9.60;83.30;;;;;;5451504;26;20014;-72
2024/04/25 03:55:52;;;;;;;7.20;3.15;;;9.70;83.70;;;;;;5450999;26;20014;-72
2024/04/25 03:58:18;;;;;;;6.78;3.40;;;9.60;83.20;;;;;;5452096;26;19998;-72
2024/04/25 04:00:44;;;;;;;5.95;2.80;;;9.60;83.40;;;;;;5451203;26;19991;-72
2024/04/25 04:03:10;;;;;;;6.40;3.28;;;9.60;83.30;;;;;;5451324;26;19995;-72
2024/04/25 04:05:36;;;;;;;5.78;3.10;;;9.60;83.20;;;;;;5451033;26;20360;-72
2024/04/25 04:08:01;;;;;;;6.22;2.90;;;9.60;83.00;;;;;;5450681;26;19996;-73
2024/04/25 04:10:27;;;;;;;8.02;3.15;;;9.50;83.00;;;;;;5451109;26;20039;-71
2024/04/25 04:12:53;;;;;;;5.63;3.03;;;9.60;83.40;;;;;;5450597;26;20438;-72
2024/04/25 04:15:19;;;;;;;5.75;2.85;;;9.60;83.50;;;;;;5450555;26;19999;-72
2024/04/25 04:17:44;;;;;;;7.78;3.03;;;9.60;83.00;;;;;;5453688;26;19994;-72
2024/04/25 04:20:10;;;;;;;7.22;3.42;;;9.70;83.00;;;;;;5454425;26;19995;-72
2024/04/25 04:22:36;;;;;;;10.07;2.92;;;9.80;82.90;;;;;;5454311;26;19999;-72
2024/04/25 04:25:02;;;;;;;7.63;3.25;;;9.80;82.80;;;;;;5453648;26;20073;-72
2024/04/25 04:27:28;;;;;;;10.63;3.40;;;9.80;83.40;;;;;;5454155;26;20332;-71
2024/04/25 04:29:54;;;;;;;5.95;3.03;;;9.90;82.70;;;;;;5453885;26;20013;-72
2024/04/25 04:32:19;;;;;;;8.35;4.07;;;9.80;82.50;;;;;;5454655;26;19998;-72
2024/04/25 04:34:45;;;;;;;6.75;3.35;;;9.80;82.80;;;;;;5453879;26;20036;-71
2024/04/25 04:37:11;;;;;;;15.85;10.75;;;9.80;82.70;;;;;;5453814;26;20064;-72
2024/04/25 04:39:37;;;;;;;11.15;7.38;;;9.80;83.10;;;;;;5453933;26;19995;-73
2024/04/25 04:42:03;;;;;;;10.77;3.85;;;9.80;82.90;;;;;;5454089;26;20067;-72
2024/04/25 04:44:28;;;;;;;8.88;4.05;;;9.80;82.60;;;;;;5453839;26;19995;-72
2024/04/25 04:46:54;;;;;;;8.18;3.58;;;9.80;82.60;;;;;;5453489;26;20490;-71
2024/04/25 04:49:20;;;;;;;7.78;3.65;;;9.80;82.70;;;;;;5453465;26;19998;-72
2024/04/25 04:51:45;;;;;;;7.15;3.75;;;9.80;82.90;;;;;;5421591;26;19998;-73
2024/04/25 04:54:12;;;;;;;11.07;5.32;;;9.80;82.90;;;;;;5453163;26;19999;-72
2024/04/25 04:56:39;;;;;;;6.10;3.88;;;9.80;83.10;;;;;;5453445;26;20399;-72
2024/04/25 04:59:04;;;;;;;8.27;3.72;;;9.80;82.80;;;;;;5453290;26;19995;-72
2024/04/25 05:01:30;;;;;;;7.03;3.45;;;9.80;83.00;;;;;;5453742;26;20005;-72
2024/04/25 05:03:56;;;;;;;6.70;3.83;;;9.80;82.60;;;;;;5453455;26;20072;-72
2024/04/25 05:06:22;;;;;;;7.72;3.40;;;9.90;82.90;;;;;;5421819;26;20439;-72
2024/04/25 05:08:47;;;;;;;7.15;3.80;;;10.00;81.70;;;;;;5453332;26;19999;-72
2024/04/25 05:11:13;;;;;;;6.18;3.42;;;10.00;81.30;;;;;;5453270;26;19998;-72
2024/04/25 05:13:39;;;;;;;7.45;3.75;;;10.10;81.30;;;;;;5453490;26;20059;-73
2024/04/25 05:16:05;;;;;;;6.30;3.67;;;10.20;80.90;;;;;;5453516;26;20457;-72
2024/04/25 05:18:31;;;;;;;7.53;3.90;;;10.30;80.90;;;;;;5421361;26;20010;-72
2024/04/25 05:20:56;;;;;;;7.25;3.40;;;10.30;80.00;;;;;;5421467;26;20031;-72
2024/04/25 05:23:22;;;;;;;6.90;3.08;;;10.40;80.10;;;;;;5453533;26;19999;-72
2024/04/25 05:25:49;;;;;;;7.35;3.58;;;10.60;79.70;;;;;;5454523;26;20026;-71
2024/04/25 05:28:15;;;;;;;5.97;3.17;;;10.70;79.10;;;;;;5453500;26;19998;-73
2024/04/25 05:30:41;;;;;;;16.33;3.60;;;10.80;78.70;;;;;;5453723;26;19998;-71
2024/04/25 05:33:07;;;;;;;7.20;3.58;;;11.00;78.40;;;;;;5453861;26;20014;-72
2024/04/25 05:35:35;;;;;;;6.32;3.22;;;11.30;77.80;;;;;;5453410;26;19995;-72
2024/04/25 05:38:01;;;;;;;6.22;3.38;;;11.40;76.90;;;;;;5453415;26;20010;-73
2024/04/25 05:40:28;;;;;;;5.78;2.90;;;11.50;76.60;;;;;;5453525;26;19995;-73
2024/04/25 05:42:54;;;;;;;8.10;3.35;;;11.50;76.30;;;;;;5422039;26;19991;-73
2024/04/25 05:45:20;;;;;;;5.80;2.92;;;11.50;75.90;;;;;;5453311;26;19998;-73
2024/04/25 05:47:46;;;;;;;6.40;3.20;;;11.50;75.90;;;;;;5453487;26;20022;-73
2024/04/25 05:50:11;;;;;;;6.13;3.35;;;11.50;75.70;;;;;;5453659;26;20049;-71
2024/04/25 05:52:37;;;;;;;5.70;3.20;;;11.60;75.80;;;;;;5421255;26;20006;-72
2024/04/25 05:55:03;;;;;;;8.05;3.33;;;11.70;75.50;;;;;;5452707;26;19995;-72
2024/04/25 05:57:29;;;;;;;7.13;2.80;;;11.70;75.80;;;;;;5453166;26;19991;-73
2024/04/25 05:59:54;;;;;;;7.13;2.88;;;11.80;75.40;;;;;;5452849;26;20005;-72
2024/04/25 06:02:24;;;;;;;6.68;2.75;;;11.90;75.30;;;;;;5452826;26;20026;-71
2024/04/25 06:04:51;;;;;;;6.32;3.20;;;12.00;75.20;;;;;;5453022;26;20003;-73
2024/04/25 06:07:16;;;;;;;5.78;3.25;;;12.00;74.80;;;;;;5420802;26;19991;-73
2024/04/25 06:09:42;;;;;;;5.35;3.08;;;12.10;74.60;;;;;;5452940;26;20439;-75
2024/04/25 06:12:08;;;;;;;5.47;3.20;;;12.10;74.80;;;;;;5453112;26;19995;-72
2024/04/25 06:14:34;;;;;;;6.18;3.50;;;12.10;74.50;;;;;;5452846;26;20006;-73
2024/04/25 06:17:01;;;;;;;5.88;3.30;;;12.20;74.70;;;;;;5452695;26;20386;-74
2024/04/25 06:19:27;;;;;;;9.57;3.35;;;12.30;74.50;;;;;;5452817;26;20031;-73
2024/04/25 06:21:53;;;;;;;6.35;3.08;;;12.30;74.10;;;;;;5452691;26;19995;-72
2024/04/25 06:24:18;;;;;;;8.90;4.75;;;12.50;74.30;;;;;;5452070;26;19999;-74
2024/04/25 06:26:44;;;;;;;6.35;3.13;;;12.50;73.80;;;;;;5420930;26;20009;-73
2024/04/25 06:29:10;;;;;;;7.53;3.45;;;12.50;73.80;;;;;;5452561;26;19999;-73
2024/04/25 06:31:36;;;;;;;8.45;3.67;;;12.50;74.10;;;;;;5452499;26;20447;-73
2024/04/25 06:34:04;;;;;;;9.35;4.70;;;12.50;74.00;;;;;;5452886;26;19995;-72
2024/04/25 06:36:34;;;;;;;8.43;5.78;;;12.40;74.30;;;;;;5452956;26;20088;-74
2024/04/25 06:39:01;;;;;;;13.10;3.90;;;12.40;74.50;;;;;;5451786;26;20002;-73
2024/04/25 06:41:27;;;;;;;7.95;4.43;;;12.40;74.60;;;;;;5452562;26;19999;-73
2024/04/25 06:43:53;;;;;;;6.22;3.28;;;12.40;74.60;;;;;;5452665;26;20404;-72
2024/04/25 06:46:19;;;;;;;6.22;3.25;;;12.50;74.80;;;;;;5420785;26;19995;-73
2024/04/25 06:48:45;;;;;;;8.32;3.65;;;12.60;74.60;;;;;;5452631;26;19998;-73
2024/04/25 06:51:11;;;;;;;7.32;3.33;;;12.60;74.30;;;;;;5452874;26;19994;-72
2024/04/25 06:53:38;;;;;;;5.82;3.40;;;12.70;74.30;;;;;;5452521;26;20010;-73
2024/04/25 06:56:04;;;;;;;8.90;4.10;;;12.80;74.00;;;;;;5452123;26;20011;-73
2024/04/25 06:58:30;;;;;;;8.80;3.40;;;12.90;73.80;;;;;;5452380;26;20445;-74
2024/04/25 07:00:56;;;;;;;7.10;3.80;;;13.00;73.50;;;;;;5452295;26;20060;-73
2024/04/25 07:03:22;;;;;;;9.82;4.15;;;13.00;73.20;;;;;;5452230;26;20335;-73
2024/04/25 07:05:48;;;;;;;9.50;3.72;;;13.10;73.10;;;;;;5452086;26;20031;-74
2024/04/25 07:08:14;;;;;;;7.53;3.60;;;13.10;73.10;;;;;;5452337;26;20068;-74
2024/04/25 07:10:40;;;;;;;7.97;3.15;;;13.20;73.10;;;;;;5452253;26;20006;-74
2024/04/25 07:13:06;;;;;;;8.75;3.53;;;13.20;73.10;;;;;;5452364;26;19997;-74
2024/04/25 07:15:32;;;;;;;7.90;3.33;;;13.20;73.10;;;;;;5452502;26;20010;-73
2024/04/25 07:18:03;;;;;;;7.72;3.20;;;13.10;73.20;;;;;;5452142;26;19994;-73
2024/04/25 07:20:29;;;;;;;11.07;3.38;;;13.20;73.80;;;;;;5452199;26;20442;-73
2024/04/25 07:22:55;;;;;;;11.02;3.13;;;13.20;73.90;;;;;;5452100;26;19999;-73
2024/04/25 07:25:21;;;;;;;7.25;3.50;;;13.30;73.80;;;;;;5451928;26;20070;-73
2024/04/25 07:27:47;;;;;;;9.88;3.22;;;13.40;74.00;;;;;;5452039;26;20007;-73
2024/04/25 07:30:13;;;;;;;6.78;3.25;;;13.50;73.90;;;;;;5451963;26;19999;-73
2024/04/25 07:32:39;;;;;;;8.65;3.20;;;13.60;73.90;;;;;;5452419;26;20005;-72
2024/04/25 07:35:06;;;;;;;7.82;3.40;;;13.60;73.80;;;;;;5452342;26;19995;-74
2024/04/25 07:37:37;;;;;;;10.35;3.40;;;13.60;73.90;;;;;;5451971;26;20006;-74
2024/04/25 07:40:04;;;;;;;7.65;3.28;;;13.70;74.10;;;;;;5452186;26;20411;-73
2024/04/25 07:42:30;;;;;;;8.77;3.30;;;13.70;74.00;;;;;;5451985;26;20067;-73
2024/04/25 07:44:57;;;;;;;16.35;3.10;;;13.70;73.90;;;;;;5420287;26;20011;-72
2024/04/25 07:47:23;;;;;;;8.57;3.78;;;13.80;74.00;;;;;;5452001;26;19999;-73
2024/04/25 07:49:49;;;;;;;6.38;3.30;;;13.90;73.60;;;;;;5451801;26;19999;-72
2024/04/25 07:52:15;;;;;;;10.23;3.92;;;14.20;73.50;;;;;;5454143;26;19995;-74
2024/04/25 07:54:41;;;;;;;6.13;3.45;;;14.30;73.10;;;;;;5455536;26;20407;-74
2024/04/25 07:57:07;;;;;;;6.22;3.72;;;14.70;73.00;;;;;;5424419;26;20512;-73
2024/04/25 07:59:33;;;;;;;9.80;3.38;;;14.90;72.40;;;;;;5456268;26;19998;-74
2024/04/25 08:01:59;;;;;;;6.88;3.53;;;15.20;71.80;;;;;;5423599;26;19995;-72
2024/04/25 08:04:25;;;;;;;12.18;3.70;;;15.30;71.50;;;;;;5423444;26;19991;-72
2024/04/25 08:06:50;;;;;;;6.57;3.40;;;15.30;71.10;;;;;;5455329;26;19998;-74
2024/04/25 08:09:16;;;;;;;8.68;3.58;;;15.40;70.70;;;;;;5423566;26;20121;-73
2024/04/25 08:11:42;;;;;;;7.35;3.83;;;15.50;70.70;;;;;;5454972;26;20019;-74
2024/04/25 08:14:07;;;;;;;8.05;3.42;;;15.60;69.80;;;;;;5455493;26;19999;-74
2024/04/25 08:16:33;;;;;;;8.15;3.75;;;15.70;69.50;;;;;;5455261;26;20414;-73
2024/04/25 08:18:59;;;;;;;6.70;3.53;;;15.70;69.30;;;;;;5423530;26;20011;-74
2024/04/25 08:21:24;;;;;;;8.52;4.18;;;15.70;69.10;;;;;;5454668;26;20003;-73
2024/04/25 08:23:50;;;;;;;6.90;3.30;;;15.70;68.90;;;;;;5454456;26;19999;-73
2024/04/25 08:26:16;;;;;;;8.93;3.80;;;15.50;68.80;;;;;;5454150;26;19994;-73
2024/04/25 08:28:41;;;;;;;5.72;3.30;;;15.30;69.60;;;;;;5454429;26;20006;-74
2024/04/25 08:31:07;;;;;;;7.20;3.22;;;15.10;70.00;;;;;;5455024;26;20005;-73
2024/04/25 08:33:33;;;;;;;9.18;3.30;;;15.10;70.10;;;;;;5454119;26;19994;-74
2024/04/25 08:35:59;;;;;;;7.65;3.42;;;14.90;70.10;;;;;;5454358;26;19999;-72
2024/04/25 08:38:27;;;;;;;9.70;3.35;;;14.90;70.10;;;;;;5454538;26;20010;-72
2024/04/25 08:40:55;;;;;;;13.40;4.43;;;14.90;70.30;;;;;;5454675;26;20030;-74
2024/04/25 08:43:21;;;;;;;8.40;3.00;;;14.90;70.20;;;;;;5454866;26;20009;-73
2024/04/25 08:45:49;;;;;;;7.38;3.05;;;14.90;70.10;;;;;;5422776;26;20488;-76
2024/04/25 08:48:18;;;;;;;5.72;3.30;;;15.00;70.00;;;;;;5422683;26;19999;-73
2024/04/25 08:50:46;;;;;;;8.25;3.53;;;14.90;69.60;;;;;;5454146;26;19999;-73
2024/04/25 08:53:14;;;;;;;6.30;3.17;;;14.90;69.60;;;;;;5454350;26;20040;-73
2024/04/25 08:55:42;;;;;;;7.95;3.15;;;15.00;69.30;;;;;;5454195;26;20009;-74
2024/04/25 08:58:07;;;;;;;5.13;3.17;;;15.00;69.20;;;;;;5422539;26;20038;-74
2024/04/25 09:00:33;;;;;;;6.35;2.83;;;15.00;68.80;;;;;;5454518;26;20027;-74
2024/04/25 09:03:01;;;;;;;7.13;2.88;;;15.00;68.60;;;;;;5453782;26;20003;-73
2024/04/25 09:05:30;;;;;;;6.85;2.97;;;15.10;68.30;;;;;;5454003;26;20490;-72
2024/04/25 09:07:56;;;;;;;8.55;2.83;;;15.10;68.10;;;;;;5453993;26;19999;-72
2024/04/25 09:10:22;;;;;;;5.72;2.90;;;15.10;67.70;;;;;;5453982;26;19995;-74
2024/04/25 09:12:48;;;;;;;6.07;2.90;;;15.20;68.00;;;;;;5421885;26;20479;-73
2024/04/25 09:15:13;;;;;;;7.70;3.08;;;15.40;68.00;;;;;;5453980;26;20134;-74
2024/04/25 09:17:39;;;;;;;6.85;2.95;;;15.50;67.20;;;;;;5453805;26;20438;-74
2024/04/25 09:20:06;;;;;;;5.55;2.58;;;15.70;66.70;;;;;;5454019;26;19998;-73
2024/04/25 09:22:32;;;;;;;6.40;2.65;;;15.90;66.40;;;;;;5453788;26;20009;-73
2024/04/25 09:24:57;;;;;;;8.48;2.67;;;16.00;66.10;;;;;;5453561;26;19999;-73
2024/04/25 09:27:23;;;;;;;8.13;2.70;;;16.10;65.60;;;;;;5453541;26;20407;-73
2024/04/25 09:29:53;;;;;;;7.63;2.42;;;16.10;64.80;;;;;;5453116;26;20010;-72
2024/04/25 09:32:19;;;;;;;6.38;2.00;;;16.40;64.90;;;;;;5453740;26;20006;-73
2024/04/25 09:34:46;;;;;;;5.22;2.15;;;16.70;64.30;;;;;;5453962;26;20071;-73
2024/04/25 09:37:12;;;;;;;5.25;2.13;;;16.80;63.00;;;;;;5453522;26;19995;-74
2024/04/25 09:39:38;;;;;;;7.32;2.20;;;17.00;62.80;;;;;;5453536;26;20006;-72
2024/04/25 09:42:05;;;;;;;5.75;2.17;;;17.00;61.90;;;;;;5453189;26;19999;-72
2024/04/25 09:44:33;;;;;;;8.35;2.30;;;17.10;61.90;;;;;;5453429;26;20010;-73
2024/04/25 09:47:08;;;;;;;9.63;3.40;;;17.10;61.60;;;;;;5454191;26;19999;-74
2024/04/25 09:49:45;;;;;;;8.32;1.98;;;17.10;62.10;;;;;;5421630;26;19999;-74
2024/04/25 09:52:22;;;;;;;8.65;2.55;;;17.00;61.40;;;;;;5421157;26;20491;-73
2024/04/25 09:54:52;;;;;;;10.30;2.00;;;16.90;61.50;;;;;;5453182;26;20085;-72
2024/04/25 09:57:20;;;;;;;6.95;2.03;;;17.00;61.20;;;;;;5453017;26;20010;-74
2024/04/25 10:00:03;;;;;;;5.28;1.85;;;17.00;60.10;;;;;;5452364;26;20007;-73
2024/04/25 10:02:30;;;;;;;4.90;2.03;;;17.00;60.00;;;;;;5453086;26;19994;-73
2024/04/25 10:04:57;;;;;;;11.20;3.08;;;17.10;59.90;;;;;;5452697;26;20027;-74
2024/04/25 10:07:23;;;;;;;6.82;2.20;;;17.20;59.80;;;;;;5453852;26;20450;-73
2024/04/25 10:09:49;;;;;;;5.45;1.92;;;17.30;59.30;;;;;;5452987;26;19999;-73
2024/04/25 10:12:20;;;;;;;7.00;2.30;;;17.40;58.60;;;;;;5452779;26;20027;-73
2024/04/25 10:15:00;;;;;;;6.88;2.80;;;17.50;59.10;;;;;;5451905;26;20006;-72
2024/04/25 10:17:28;;;;;;;6.85;2.05;;;17.60;58.60;;;;;;5452743;26;20463;-73
2024/04/25 10:19:54;;;;;;;8.02;2.10;;;17.60;58.10;;;;;;5421527;26;19995;-73
2024/04/25 10:22:24;;;;;;;6.53;2.25;;;17.60;57.60;;;;;;5452846;26;19999;-74
2024/04/25 10:24:51;;;;;;;7.22;2.05;;;17.60;57.90;;;;;;5452869;26;20010;-74
2024/04/25 10:27:20;;;;;;;9.60;2.50;;;17.70;57.70;;;;;;5453085;26;19999;-73
2024/04/25 10:29:53;;;;;;;6.30;2.15;;;17.70;57.20;;;;;;5452521;26;20457;-73
2024/04/25 10:32:19;;;;;;;8.80;2.40;;;17.80;57.20;;;;;;5452437;26;19998;-72
2024/04/25 10:34:47;;;;;;;7.10;2.42;;;17.80;56.90;;;;;;5452301;26;20010;-74
2024/04/25 10:37:13;;;;;;;5.80;2.10;;;17.80;56.60;;;;;;5421423;26;19999;-73
2024/04/25 10:39:41;;;;;;;8.90;2.30;;;17.80;56.30;;;;;;5452795;26;19998;-74
2024/04/25 10:42:17;;;;;;;10.57;2.20;;;17.90;56.60;;;;;;5452398;26;20006;-73
2024/04/25 10:44:48;;;;;;;6.75;2.50;;;17.90;56.20;;;;;;5452289;26;19995;-74
2024/04/25 10:47:18;;;;;;;9.13;2.55;;;17.90;56.00;;;;;;5452813;26;20009;-74
2024/04/25 10:49:44;;;;;;;5.82;2.20;;;17.90;56.00;;;;;;5452806;26;20443;-72
2024/04/25 10:52:10;;;;;;;9.60;2.60;;;17.80;56.00;;;;;;5452106;26;20067;-73
2024/04/25 10:54:36;;;;;;;6.22;2.50;;;17.80;56.40;;;;;;5452569;26;20412;-73
2024/04/25 10:57:02;;;;;;;9.10;3.85;;;17.80;56.60;;;;;;5452113;26;19995;-73
2024/04/25 10:59:29;;;;;;;14.93;8.60;;;17.80;56.50;;;;;;5452423;26;20337;-73
2024/04/25 11:02:05;;;;;;;9.60;3.70;;;17.80;56.60;;;;;;5452446;26;19995;-72
2024/04/25 11:04:32;;;;;;;9.68;2.78;;;17.70;56.60;;;;;;5451673;26;19999;-73
2024/04/25 11:06:59;;;;;;;6.10;2.53;;;17.70;56.30;;;;;;5452191;26;20442;-72
2024/04/25 11:09:26;;;;;;;6.00;3.10;;;17.60;56.20;;;;;;5451979;26;20045;-72
2024/04/25 11:11:52;;;;;;;10.60;2.97;;;17.60;56.30;;;;;;5452028;26;20814;-74
2024/04/25 11:14:18;;;;;;;8.20;3.22;;;17.50;55.90;;;;;;5452516;26;20443;-73
2024/04/25 11:16:44;;;;;;;11.75;3.75;;;17.50;56.00;;;;;;5452191;26;20072;-74
2024/04/25 11:19:10;;;;;;;12.85;3.55;;;17.40;56.10;;;;;;5452811;26;20449;-74
2024/04/25 11:21:36;;;;;;;10.00;3.42;;;17.50;56.60;;;;;;5420705;26;20036;-74
2024/04/25 11:24:02;;;;;;;7.07;2.63;;;17.50;56.60;;;;;;5452471;26;20027;-74
2024/04/25 11:26:28;;;;;;;7.45;3.40;;;17.60;56.30;;;;;;5451497;26;19998;-73
2024/04/25 11:28:54;;;;;;;9.70;3.20;;;17.70;56.30;;;;;;5451891;26;20009;-73
2024/04/25 11:31:21;;;;;;;6.47;3.30;;;17.80;56.00;;;;;;5452690;26;19999;-74
2024/04/25 11:33:47;;;;;;;9.77;3.40;;;17.80;55.70;;;;;;5452379;26;20010;-73
2024/04/25 11:36:22;;;;;;;9.15;3.30;;;17.70;55.30;;;;;;5420096;26;19999;-73
2024/04/25 11:38:52;;;;;;;14.70;8.77;;;17.60;55.90;;;;;;5451489;26;20009;-73
2024/04/25 11:41:18;;;;;;;10.93;4.72;;;17.70;55.90;;;;;;5451641;26;20009;-74
2024/04/25 11:43:44;;;;;;;8.68;3.00;;;17.60;55.80;;;;;;5451907;26;20340;-72
2024/04/25 11:46:10;;;;;;;8.60;3.15;;;17.60;56.20;;;;;;5451302;26;20467;-72
2024/04/25 11:48:49;;;;;;;9.60;3.03;;;17.50;56.70;;;;;;5419388;26;20059;-73
2024/04/25 11:51:15;;;;;;;8.25;2.78;;;17.50;57.30;;;;;;5451422;26;20442;-73
2024/04/25 11:53:41;;;;;;;11.35;2.92;;;17.50;57.20;;;;;;5451246;26;20068;-73
2024/04/25 11:56:07;;;;;;;10.32;3.17;;;17.50;57.20;;;;;;5451319;26;19995;-75
2024/04/25 11:58:32;;;;;;;13.90;3.05;;;17.40;57.30;;;;;;5451193;26;19995;-73
2024/04/25 12:00:58;;;;;;;11.88;3.25;;;17.40;57.10;;;;;;5451068;26;19999;-73
2024/04/25 12:03:24;;;;;;;9.95;2.60;;;17.40;57.10;;;;;;5451128;26;20005;-72
2024/04/25 12:05:50;;;;;;;11.88;2.83;;;17.40;57.00;;;;;;5451100;26;19998;-74
2024/04/25 12:08:15;;;;;;;14.75;3.40;;;17.50;56.90;;;;;;5451192;26;20074;-72
2024/04/25 12:10:42;;;;;;;10.20;2.92;;;17.50;56.30;;;;;;5451149;26;20014;-73
2024/04/25 12:13:10;;;;;;;17.48;4.28;;;17.50;56.50;;;;;;5451662;26;19995;-73
2024/04/25 12:15:36;;;;;;;9.68;2.83;;;17.60;57.00;;;;;;5451411;26;20008;-73
2024/04/25 12:18:04;;;;;;;8.38;2.70;;;17.60;57.10;;;;;;5451274;26;20435;-74
2024/04/25 12:20:29;;;;;;;9.57;3.85;;;17.70;57.10;;;;;;5451765;26;20467;-74
2024/04/25 12:22:55;;;;;;;8.77;3.00;;;17.70;57.20;;;;;;5451350;26;20010;-73
2024/04/25 12:25:21;;;;;;;10.43;2.83;;;17.70;57.20;;;;;;5451371;26;20006;-72
2024/04/25 12:27:46;;;;;;;11.63;2.85;;;17.70;57.00;;;;;;5451400;26;20430;-73
2024/04/25 12:30:12;;;;;;;8.18;2.60;;;17.80;57.10;;;;;;5451787;26;20339;-73
2024/04/25 12:32:38;;;;;;;11.95;3.47;;;17.90;56.90;;;;;;5419714;26;19995;-73
2024/04/25 12:35:04;;;;;;;12.07;3.58;;;18.00;56.90;;;;;;5450889;26;19995;-73
2024/04/25 12:37:29;;;;;;;12.63;3.30;;;18.00;56.90;;;;;;5452180;26;20005;-74
2024/04/25 12:39:55;;;;;;;9.20;2.78;;;18.10;57.00;;;;;;5454946;26;20094;-72
2024/04/25 12:42:22;;;;;;;14.82;3.55;;;18.10;57.10;;;;;;5454895;26;19999;-74
2024/04/25 12:44:51;;;;;;;11.57;3.45;;;18.10;57.10;;;;;;5422776;26;19995;-73
2024/04/25 12:47:16;;;;;;;11.82;2.63;;;18.10;57.10;;;;;;5454417;26;20396;-73
2024/04/25 12:49:42;;;;;;;10.70;3.05;;;18.20;57.20;;;;;;5454185;26;20006;-74